Gotha, Florida
Current Conditions -  °F | °C
As of 12:53 PM on Saturday 25 Oct 2014 (Local Time) from KORL Reporting Station
Clear Clear  
Wind Chill: 78°   Ceiling: Unl
Heat Index: 79°   Visibility: 10mi
Dew Point: 57°   Wind: 7mph
Humidity: 48%   Direction: 320°NW
Pressure: 29.98"   Gusts: NA
Location:  28.53°N, 81.52°W
Report Text: KORL 251653Z 32006KT 10SM CLR 26/14 A2998 RMK AO2 SLP155 T02560139
Loading
Personal Weather Stations






























Interactive Weather Map
Tropical Storm Tracking
New forecast layout! Learn more

10-Day Weather Forecast

Advertisements
Track Severe Weather on mobile